sensor_id;sensor_type;location;lat;lon;timestamp;P1;durP1;ratioP1;P2;durP2;ratioP2
67841;SDS011;54642;59.126;37.876;2023-05-29T00:01:25;37.13;;;11.73;;
67841;SDS011;54642;59.126;37.876;2023-05-29T00:03:51;34.00;;;8.90;;
67841;SDS011;54642;59.126;37.876;2023-05-29T00:06:17;19.48;;;6.50;;
67841;SDS011;54642;59.126;37.876;2023-05-29T00:08:44;27.20;;;5.90;;
67841;SDS011;54642;59.126;37.876;2023-05-29T00:11:11;32.75;;;7.15;;
67841;SDS011;54642;59.126;37.876;2023-05-29T00:13:38;28.85;;;7.05;;
67841;SDS011;54642;59.126;37.876;2023-05-29T00:16:04;23.40;;;5.97;;
67841;SDS011;54642;59.126;37.876;2023-05-29T00:18:30;27.85;;;6.95;;
67841;SDS011;54642;59.126;37.876;2023-05-29T00:20:55;24.13;;;6.30;;
67841;SDS011;54642;59.126;37.876;2023-05-29T00:23:21;33.40;;;7.05;;
67841;SDS011;54642;59.126;37.876;2023-05-29T00:25:47;34.90;;;9.20;;
67841;SDS011;54642;59.126;37.876;2023-05-29T00:28:13;34.47;;;8.20;;
67841;SDS011;54642;59.126;37.876;2023-05-29T00:30:39;34.20;;;7.18;;
67841;SDS011;54642;59.126;37.876;2023-05-29T00:33:05;36.95;;;9.43;;
67841;SDS011;54642;59.126;37.876;2023-05-29T00:35:31;28.70;;;5.07;;
67841;SDS011;54642;59.126;37.876;2023-05-29T00:37:57;18.20;;;4.95;;
67841;SDS011;54642;59.126;37.876;2023-05-29T00:40:23;24.48;;;5.68;;
67841;SDS011;54642;59.126;37.876;2023-05-29T00:42:50;23.70;;;5.18;;
67841;SDS011;54642;59.126;37.876;2023-05-29T00:45:16;18.98;;;4.72;;
67841;SDS011;54642;59.126;37.876;2023-05-29T00:47:42;18.42;;;6.30;;
67841;SDS011;54642;59.126;37.876;2023-05-29T00:50:08;28.95;;;6.35;;
67841;SDS011;54642;59.126;37.876;2023-05-29T00:52:36;27.20;;;6.38;;
67841;SDS011;54642;59.126;37.876;2023-05-29T00:55:03;27.55;;;6.50;;
67841;SDS011;54642;59.126;37.876;2023-05-29T00:57:30;31.27;;;6.85;;
67841;SDS011;54642;59.126;37.876;2023-05-29T00:59:57;18.35;;;5.93;;
67841;SDS011;54642;59.126;37.876;2023-05-29T01:02:24;28.33;;;8.75;;
67841;SDS011;54642;59.126;37.876;2023-05-29T01:04:50;26.88;;;8.50;;
67841;SDS011;54642;59.126;37.876;2023-05-29T01:07:19;21.63;;;6.80;;
67841;SDS011;54642;59.126;37.876;2023-05-29T01:09:46;23.23;;;8.80;;
67841;SDS011;54642;59.126;37.876;2023-05-29T01:15:07;26.23;;;8.32;;
67841;SDS011;54642;59.126;37.876;2023-05-29T01:23:06;28.25;;;7.25;;
67841;SDS011;54642;59.126;37.876;2023-05-29T01:25:41;17.98;;;6.13;;
67841;SDS011;54642;59.126;37.876;2023-05-29T01:28:31;23.13;;;7.63;;
67841;SDS011;54642;59.126;37.876;2023-05-29T01:31:02;18.15;;;6.43;;
67841;SDS011;54642;59.126;37.876;2023-05-29T01:33:29;24.52;;;7.18;;
67841;SDS011;54642;59.126;37.876;2023-05-29T01:35:55;20.63;;;7.05;;
67841;SDS011;54642;59.126;37.876;2023-05-29T01:38:22;26.05;;;7.20;;
67841;SDS011;54642;59.126;37.876;2023-05-29T01:40:49;27.40;;;7.55;;
67841;SDS011;54642;59.126;37.876;2023-05-29T01:43:16;27.40;;;9.32;;
67841;SDS011;54642;59.126;37.876;2023-05-29T01:45:42;24.98;;;8.25;;
67841;SDS011;54642;59.126;37.876;2023-05-29T01:48:08;32.88;;;7.07;;
67841;SDS011;54642;59.126;37.876;2023-05-29T01:50:35;30.73;;;8.35;;
67841;SDS011;54642;59.126;37.876;2023-05-29T01:53:02;23.65;;;8.57;;
67841;SDS011;54642;59.126;37.876;2023-05-29T01:55:27;29.48;;;7.10;;
67841;SDS011;54642;59.126;37.876;2023-05-29T01:57:53;32.08;;;7.45;;
67841;SDS011;54642;59.126;37.876;2023-05-29T02:00:21;25.98;;;5.97;;
67841;SDS011;54642;59.126;37.876;2023-05-29T02:02:47;23.15;;;5.85;;
67841;SDS011;54642;59.126;37.876;2023-05-29T02:05:13;30.63;;;7.72;;
67841;SDS011;54642;59.126;37.876;2023-05-29T02:07:39;22.17;;;6.88;;
67841;SDS011;54642;59.126;37.876;2023-05-29T02:10:05;21.58;;;5.85;;
67841;SDS011;54642;59.126;37.876;2023-05-29T02:12:31;24.17;;;7.50;;
67841;SDS011;54642;59.126;37.876;2023-05-29T02:14:57;36.92;;;9.27;;
67841;SDS011;54642;59.126;37.876;2023-05-29T02:17:23;22.98;;;5.80;;
67841;SDS011;54642;59.126;37.876;2023-05-29T02:19:50;21.95;;;6.55;;
67841;SDS011;54642;59.126;37.876;2023-05-29T02:22:17;19.33;;;5.30;;
67841;SDS011;54642;59.126;37.876;2023-05-29T02:24:43;15.88;;;5.68;;
67841;SDS011;54642;59.126;37.876;2023-05-29T02:27:09;19.35;;;5.07;;
67841;SDS011;54642;59.126;37.876;2023-05-29T02:29:35;22.73;;;5.00;;
67841;SDS011;54642;59.126;37.876;2023-05-29T02:32:01;28.73;;;5.75;;
67841;SDS011;54642;59.126;37.876;2023-05-29T02:34:27;15.15;;;4.70;;
67841;SDS011;54642;59.126;37.876;2023-05-29T02:36:52;20.92;;;5.35;;
67841;SDS011;54642;59.126;37.876;2023-05-29T02:39:19;16.13;;;6.18;;
67841;SDS011;54642;59.126;37.876;2023-05-29T02:41:45;16.20;;;5.93;;
67841;SDS011;54642;59.126;37.876;2023-05-29T02:44:11;19.85;;;6.47;;
67841;SDS011;54642;59.126;37.876;2023-05-29T02:46:36;18.88;;;6.13;;
67841;SDS011;54642;59.126;37.876;2023-05-29T02:49:02;19.38;;;5.18;;
67841;SDS011;54642;59.126;37.876;2023-05-29T02:51:29;15.98;;;4.57;;
67841;SDS011;54642;59.126;37.876;2023-05-29T02:53:57;21.17;;;4.88;;
67841;SDS011;54642;59.126;37.876;2023-05-29T02:56:24;18.25;;;4.22;;
67841;SDS011;54642;59.126;37.876;2023-05-29T02:58:51;15.82;;;3.22;;
67841;SDS011;54642;59.126;37.876;2023-05-29T03:01:18;14.25;;;2.72;;
67841;SDS011;54642;59.126;37.876;2023-05-29T03:03:44;29.98;;;3.75;;
67841;SDS011;54642;59.126;37.876;2023-05-29T03:06:11;19.95;;;3.25;;
67841;SDS011;54642;59.126;37.876;2023-05-29T03:08:39;17.85;;;4.28;;
67841;SDS011;54642;59.126;37.876;2023-05-29T03:11:10;17.52;;;4.35;;
67841;SDS011;54642;59.126;37.876;2023-05-29T03:13:37;17.27;;;3.33;;
67841;SDS011;54642;59.126;37.876;2023-05-29T03:16:07;13.43;;;3.47;;
67841;SDS011;54642;59.126;37.876;2023-05-29T03:18:34;13.20;;;3.42;;
67841;SDS011;54642;59.126;37.876;2023-05-29T03:21:01;20.05;;;3.97;;
67841;SDS011;54642;59.126;37.876;2023-05-29T03:23:29;23.92;;;4.28;;
67841;SDS011;54642;59.126;37.876;2023-05-29T03:25:55;11.50;;;3.15;;
67841;SDS011;54642;59.126;37.876;2023-05-29T03:28:21;10.02;;;3.15;;
67841;SDS011;54642;59.126;37.876;2023-05-29T03:30:47;14.25;;;3.20;;
67841;SDS011;54642;59.126;37.876;2023-05-29T03:33:16;12.85;;;3.72;;
67841;SDS011;54642;59.126;37.876;2023-05-29T03:36:08;9.95;;;2.70;;
67841;SDS011;54642;59.126;37.876;2023-05-29T03:38:34;8.55;;;5.65;;
67841;SDS011;54642;59.126;37.876;2023-05-29T03:41:02;18.58;;;9.48;;
67841;SDS011;54642;59.126;37.876;2023-05-29T03:43:28;5.80;;;2.40;;
67841;SDS011;54642;59.126;37.876;2023-05-29T03:45:53;6.63;;;2.60;;
67841;SDS011;54642;59.126;37.876;2023-05-29T03:48:19;6.80;;;2.22;;
67841;SDS011;54642;59.126;37.876;2023-05-29T03:50:47;6.85;;;1.95;;
67841;SDS011;54642;59.126;37.876;2023-05-29T03:53:15;8.23;;;4.40;;
67841;SDS011;54642;59.126;37.876;2023-05-29T03:55:42;5.10;;;2.55;;
67841;SDS011;54642;59.126;37.876;2023-05-29T03:58:08;5.38;;;2.38;;
67841;SDS011;54642;59.126;37.876;2023-05-29T04:00:35;7.38;;;2.10;;
67841;SDS011;54642;59.126;37.876;2023-05-29T04:03:02;12.90;;;2.83;;
67841;SDS011;54642;59.126;37.876;2023-05-29T04:05:28;9.57;;;2.67;;
67841;SDS011;54642;59.126;37.876;2023-05-29T04:07:55;9.93;;;2.45;;
67841;SDS011;54642;59.126;37.876;2023-05-29T04:10:21;9.98;;;2.53;;
67841;SDS011;54642;59.126;37.876;2023-05-29T04:12:47;13.65;;;5.55;;
67841;SDS011;54642;59.126;37.876;2023-05-29T04:15:14;5.00;;;2.65;;
67841;SDS011;54642;59.126;37.876;2023-05-29T04:17:40;6.07;;;2.13;;
67841;SDS011;54642;59.126;37.876;2023-05-29T04:20:06;3.22;;;1.92;;
67841;SDS011;54642;59.126;37.876;2023-05-29T04:22:37;8.75;;;1.88;;
67841;SDS011;54642;59.126;37.876;2023-05-29T04:25:03;11.07;;;2.08;;
67841;SDS011;54642;59.126;37.876;2023-05-29T04:27:30;20.85;;;8.52;;
67841;SDS011;54642;59.126;37.876;2023-05-29T04:30:05;4.40;;;2.15;;
67841;SDS011;54642;59.126;37.876;2023-05-29T04:32:35;10.18;;;2.05;;
67841;SDS011;54642;59.126;37.876;2023-05-29T04:35:02;5.63;;;1.67;;
67841;SDS011;54642;59.126;37.876;2023-05-29T04:37:31;12.15;;;3.00;;
67841;SDS011;54642;59.126;37.876;2023-05-29T04:40:04;33.53;;;20.35;;
67841;SDS011;54642;59.126;37.876;2023-05-29T04:42:37;5.05;;;2.15;;
67841;SDS011;54642;59.126;37.876;2023-05-29T04:45:05;10.93;;;2.65;;
67841;SDS011;54642;59.126;37.876;2023-05-29T04:47:34;6.10;;;2.35;;
67841;SDS011;54642;59.126;37.876;2023-05-29T04:50:03;8.93;;;1.70;;
67841;SDS011;54642;59.126;37.876;2023-05-29T04:52:29;7.07;;;2.28;;
67841;SDS011;54642;59.126;37.876;2023-05-29T04:54:58;10.65;;;2.30;;
67841;SDS011;54642;59.126;37.876;2023-05-29T04:57:23;10.95;;;1.70;;
67841;SDS011;54642;59.126;37.876;2023-05-29T04:59:49;5.20;;;1.45;;
67841;SDS011;54642;59.126;37.876;2023-05-29T05:02:18;5.75;;;1.52;;
67841;SDS011;54642;59.126;37.876;2023-05-29T05:04:44;4.55;;;1.42;;
67841;SDS011;54642;59.126;37.876;2023-05-29T05:07:10;14.07;;;2.22;;
67841;SDS011;54642;59.126;37.876;2023-05-29T05:09:36;21.55;;;10.88;;
67841;SDS011;54642;59.126;37.876;2023-05-29T05:12:02;3.55;;;1.30;;
67841;SDS011;54642;59.126;37.876;2023-05-29T05:14:29;5.63;;;1.50;;
67841;SDS011;54642;59.126;37.876;2023-05-29T05:16:54;6.32;;;1.20;;
67841;SDS011;54642;59.126;37.876;2023-05-29T05:19:20;7.72;;;1.50;;
67841;SDS011;54642;59.126;37.876;2023-05-29T05:21:53;5.50;;;1.98;;
67841;SDS011;54642;59.126;37.876;2023-05-29T05:24:21;7.35;;;1.45;;
67841;SDS011;54642;59.126;37.876;2023-05-29T05:26:47;9.18;;;1.98;;
67841;SDS011;54642;59.126;37.876;2023-05-29T05:29:13;6.50;;;1.42;;
67841;SDS011;54642;59.126;37.876;2023-05-29T05:31:39;6.78;;;2.03;;
67841;SDS011;54642;59.126;37.876;2023-05-29T05:34:05;4.88;;;1.80;;
67841;SDS011;54642;59.126;37.876;2023-05-29T05:36:31;2.17;;;1.25;;
67841;SDS011;54642;59.126;37.876;2023-05-29T05:39:05;5.60;;;1.90;;
67841;SDS011;54642;59.126;37.876;2023-05-29T05:41:31;14.00;;;2.05;;
67841;SDS011;54642;59.126;37.876;2023-05-29T05:43:57;6.43;;;1.42;;
67841;SDS011;54642;59.126;37.876;2023-05-29T05:46:37;4.68;;;1.55;;
67841;SDS011;54642;59.126;37.876;2023-05-29T05:49:02;6.57;;;1.52;;
67841;SDS011;54642;59.126;37.876;2023-05-29T05:51:29;6.90;;;1.55;;
67841;SDS011;54642;59.126;37.876;2023-05-29T05:53:56;21.77;;;14.18;;
67841;SDS011;54642;59.126;37.876;2023-05-29T05:56:22;2.85;;;2.08;;
67841;SDS011;54642;59.126;37.876;2023-05-29T05:58:48;16.10;;;6.43;;
67841;SDS011;54642;59.126;37.876;2023-05-29T06:01:18;6.03;;;2.20;;
67841;SDS011;54642;59.126;37.876;2023-05-29T06:03:44;3.55;;;2.13;;
67841;SDS011;54642;59.126;37.876;2023-05-29T06:06:10;3.35;;;1.95;;
67841;SDS011;54642;59.126;37.876;2023-05-29T06:08:38;9.00;;;2.25;;
67841;SDS011;54642;59.126;37.876;2023-05-29T06:11:07;35.22;;;21.27;;
67841;SDS011;54642;59.126;37.876;2023-05-29T06:13:35;6.30;;;1.92;;
67841;SDS011;54642;59.126;37.876;2023-05-29T06:16:12;2.50;;;1.90;;
67841;SDS011;54642;59.126;37.876;2023-05-29T06:18:37;6.43;;;3.38;;
67841;SDS011;54642;59.126;37.876;2023-05-29T06:21:03;8.65;;;2.53;;
67841;SDS011;54642;59.126;37.876;2023-05-29T06:23:30;18.70;;;12.55;;
67841;SDS011;54642;59.126;37.876;2023-05-29T06:25:56;2.67;;;1.83;;
67841;SDS011;54642;59.126;37.876;2023-05-29T06:28:22;5.35;;;1.63;;
67841;SDS011;54642;59.126;37.876;2023-05-29T06:30:48;2.65;;;1.33;;
67841;SDS011;54642;59.126;37.876;2023-05-29T06:33:15;9.38;;;2.22;;
67841;SDS011;54642;59.126;37.876;2023-05-29T06:35:41;4.88;;;1.55;;
67841;SDS011;54642;59.126;37.876;2023-05-29T06:38:08;4.00;;;1.70;;
67841;SDS011;54642;59.126;37.876;2023-05-29T06:40:51;3.17;;;1.60;;
67841;SDS011;54642;59.126;37.876;2023-05-29T06:43:17;8.93;;;1.80;;
67841;SDS011;54642;59.126;37.876;2023-05-29T06:45:49;4.70;;;1.23;;
67841;SDS011;54642;59.126;37.876;2023-05-29T06:48:16;3.63;;;1.95;;
67841;SDS011;54642;59.126;37.876;2023-05-29T06:50:44;7.13;;;1.98;;
67841;SDS011;54642;59.126;37.876;2023-05-29T06:53:36;2.80;;;1.33;;
67841;SDS011;54642;59.126;37.876;2023-05-29T06:56:03;9.23;;;2.92;;
67841;SDS011;54642;59.126;37.876;2023-05-29T06:58:31;5.45;;;1.92;;
67841;SDS011;54642;59.126;37.876;2023-05-29T07:00:58;3.55;;;1.40;;
67841;SDS011;54642;59.126;37.876;2023-05-29T07:03:30;9.95;;;2.00;;
67841;SDS011;54642;59.126;37.876;2023-05-29T07:05:56;5.53;;;1.98;;
67841;SDS011;54642;59.126;37.876;2023-05-29T07:08:22;9.63;;;1.90;;
67841;SDS011;54642;59.126;37.876;2023-05-29T07:10:51;4.88;;;1.30;;
67841;SDS011;54642;59.126;37.876;2023-05-29T07:13:18;13.13;;;3.60;;
67841;SDS011;54642;59.126;37.876;2023-05-29T07:15:45;9.73;;;2.90;;
67841;SDS011;54642;59.126;37.876;2023-05-29T07:18:16;8.80;;;2.30;;
67841;SDS011;54642;59.126;37.876;2023-05-29T07:20:41;6.07;;;2.30;;
67841;SDS011;54642;59.126;37.876;2023-05-29T07:23:11;5.75;;;3.10;;
67841;SDS011;54642;59.126;37.876;2023-05-29T07:25:39;4.32;;;1.90;;
67841;SDS011;54642;59.126;37.876;2023-05-29T07:28:06;3.95;;;1.73;;
67841;SDS011;54642;59.126;37.876;2023-05-29T07:30:31;3.90;;;1.80;;
67841;SDS011;54642;59.126;37.876;2023-05-29T07:32:57;7.85;;;2.80;;
67841;SDS011;54642;59.126;37.876;2023-05-29T07:35:23;6.53;;;3.35;;
67841;SDS011;54642;59.126;37.876;2023-05-29T07:37:49;9.05;;;2.25;;
67841;SDS011;54642;59.126;37.876;2023-05-29T07:40:20;3.42;;;1.45;;
67841;SDS011;54642;59.126;37.876;2023-05-29T07:43:04;7.75;;;4.72;;
67841;SDS011;54642;59.126;37.876;2023-05-29T07:45:44;5.95;;;1.33;;
67841;SDS011;54642;59.126;37.876;2023-05-29T07:48:10;5.78;;;3.33;;
67841;SDS011;54642;59.126;37.876;2023-05-29T07:50:36;5.93;;;1.95;;
67841;SDS011;54642;59.126;37.876;2023-05-29T07:53:02;5.97;;;2.08;;
67841;SDS011;54642;59.126;37.876;2023-05-29T07:55:29;10.93;;;1.73;;
67841;SDS011;54642;59.126;37.876;2023-05-29T07:57:56;4.85;;;1.23;;
67841;SDS011;54642;59.126;37.876;2023-05-29T08:00:22;5.63;;;1.85;;
67841;SDS011;54642;59.126;37.876;2023-05-29T08:02:50;8.63;;;1.42;;
67841;SDS011;54642;59.126;37.876;2023-05-29T08:05:30;4.13;;;1.02;;
67841;SDS011;54642;59.126;37.876;2023-05-29T08:08:01;3.58;;;1.33;;
67841;SDS011;54642;59.126;37.876;2023-05-29T08:10:28;9.23;;;2.20;;
67841;SDS011;54642;59.126;37.876;2023-05-29T08:12:54;7.88;;;5.18;;
67841;SDS011;54642;59.126;37.876;2023-05-29T08:15:20;10.50;;;2.30;;
67841;SDS011;54642;59.126;37.876;2023-05-29T08:17:50;6.28;;;1.70;;
67841;SDS011;54642;59.126;37.876;2023-05-29T08:20:16;6.22;;;1.70;;
67841;SDS011;54642;59.126;37.876;2023-05-29T08:22:42;2.83;;;1.30;;
67841;SDS011;54642;59.126;37.876;2023-05-29T08:25:08;2.50;;;1.20;;
67841;SDS011;54642;59.126;37.876;2023-05-29T08:27:33;2.67;;;1.85;;
67841;SDS011;54642;59.126;37.876;2023-05-29T08:29:59;3.25;;;1.15;;
67841;SDS011;54642;59.126;37.876;2023-05-29T08:32:25;6.53;;;1.27;;
67841;SDS011;54642;59.126;37.876;2023-05-29T08:34:51;2.72;;;1.58;;
67841;SDS011;54642;59.126;37.876;2023-05-29T08:37:17;20.40;;;11.00;;
67841;SDS011;54642;59.126;37.876;2023-05-29T08:39:42;5.88;;;1.73;;
67841;SDS011;54642;59.126;37.876;2023-05-29T08:42:10;8.32;;;2.13;;
67841;SDS011;54642;59.126;37.876;2023-05-29T08:44:40;4.95;;;1.30;;
67841;SDS011;54642;59.126;37.876;2023-05-29T08:47:06;4.47;;;1.10;;
67841;SDS011;54642;59.126;37.876;2023-05-29T08:49:42;5.60;;;1.00;;
67841;SDS011;54642;59.126;37.876;2023-05-29T08:52:22;4.32;;;1.48;;
67841;SDS011;54642;59.126;37.876;2023-05-29T08:54:50;3.45;;;1.67;;
67841;SDS011;54642;59.126;37.876;2023-05-29T08:57:17;4.60;;;1.65;;
67841;SDS011;54642;59.126;37.876;2023-05-29T08:59:44;4.50;;;1.00;;
67841;SDS011;54642;59.126;37.876;2023-05-29T09:02:10;14.82;;;1.70;;
67841;SDS011;54642;59.126;37.876;2023-05-29T09:04:37;13.82;;;8.43;;
67841;SDS011;54642;59.126;37.876;2023-05-29T09:07:04;4.10;;;1.50;;
67841;SDS011;54642;59.126;37.876;2023-05-29T09:09:34;1.90;;;1.00;;
67841;SDS011;54642;59.126;37.876;2023-05-29T09:11:59;8.15;;;1.58;;
67841;SDS011;54642;59.126;37.876;2023-05-29T09:14:35;3.55;;;1.55;;
67841;SDS011;54642;59.126;37.876;2023-05-29T09:17:06;2.80;;;1.50;;
67841;SDS011;54642;59.126;37.876;2023-05-29T09:19:33;3.30;;;1.25;;
67841;SDS011;54642;59.126;37.876;2023-05-29T09:22:04;6.95;;;1.42;;
67841;SDS011;54642;59.126;37.876;2023-05-29T09:24:33;6.40;;;2.17;;
67841;SDS011;54642;59.126;37.876;2023-05-29T09:27:00;4.30;;;1.48;;
67841;SDS011;54642;59.126;37.876;2023-05-29T09:29:32;5.63;;;1.98;;
67841;SDS011;54642;59.126;37.876;2023-05-29T09:32:07;3.28;;;1.70;;
67841;SDS011;54642;59.126;37.876;2023-05-29T09:34:37;2.83;;;1.38;;
67841;SDS011;54642;59.126;37.876;2023-05-29T09:37:05;8.05;;;1.95;;
67841;SDS011;54642;59.126;37.876;2023-05-29T09:42:09;5.35;;;2.05;;
67841;SDS011;54642;59.126;37.876;2023-05-29T09:44:35;12.93;;;5.75;;
67841;SDS011;54642;59.126;37.876;2023-05-29T09:47:01;7.82;;;1.90;;
67841;SDS011;54642;59.126;37.876;2023-05-29T09:49:27;3.10;;;1.20;;
67841;SDS011;54642;59.126;37.876;2023-05-29T09:51:53;4.43;;;1.88;;
67841;SDS011;54642;59.126;37.876;2023-05-29T09:54:20;6.68;;;1.08;;
67841;SDS011;54642;59.126;37.876;2023-05-29T09:56:47;9.65;;;2.75;;
67841;SDS011;54642;59.126;37.876;2023-05-29T09:59:14;5.35;;;3.28;;
67841;SDS011;54642;59.126;37.876;2023-05-29T10:01:42;3.03;;;1.20;;
67841;SDS011;54642;59.126;37.876;2023-05-29T10:04:10;5.45;;;1.33;;
67841;SDS011;54642;59.126;37.876;2023-05-29T10:06:45;6.95;;;1.40;;
67841;SDS011;54642;59.126;37.876;2023-05-29T10:11:44;6.78;;;1.65;;
67841;SDS011;54642;59.126;37.876;2023-05-29T10:14:17;5.50;;;1.65;;
67841;SDS011;54642;59.126;37.876;2023-05-29T10:16:48;3.60;;;1.10;;
67841;SDS011;54642;59.126;37.876;2023-05-29T10:19:18;5.40;;;1.42;;
67841;SDS011;54642;59.126;37.876;2023-05-29T10:21:49;4.75;;;1.73;;
67841;SDS011;54642;59.126;37.876;2023-05-29T10:24:19;4.45;;;1.60;;
67841;SDS011;54642;59.126;37.876;2023-05-29T10:26:47;8.57;;;1.75;;
67841;SDS011;54642;59.126;37.876;2023-05-29T10:29:29;13.52;;;7.35;;
67841;SDS011;54642;59.126;37.876;2023-05-29T10:32:23;3.60;;;2.00;;
67841;SDS011;54642;59.126;37.876;2023-05-29T10:37:42;9.07;;;2.25;;
67841;SDS011;54642;59.126;37.876;2023-05-29T10:45:08;4.32;;;1.35;;
67841;SDS011;54642;59.126;37.876;2023-05-29T10:47:37;4.80;;;1.65;;
67841;SDS011;54642;59.126;37.876;2023-05-29T10:50:04;6.03;;;1.92;;
67841;SDS011;54642;59.126;37.876;2023-05-29T10:52:34;2.50;;;1.70;;
67841;SDS011;54642;59.126;37.876;2023-05-29T10:55:01;18.65;;;6.13;;
67841;SDS011;54642;59.126;37.876;2023-05-29T10:57:30;5.07;;;1.52;;
67841;SDS011;54642;59.126;37.876;2023-05-29T11:00:05;6.07;;;2.13;;
67841;SDS011;54642;59.126;37.876;2023-05-29T11:02:38;3.72;;;1.45;;
67841;SDS011;54642;59.126;37.876;2023-05-29T11:05:27;7.10;;;1.95;;
67841;SDS011;54642;59.126;37.876;2023-05-29T11:07:53;6.60;;;2.00;;
67841;SDS011;54642;59.126;37.876;2023-05-29T11:10:43;3.03;;;1.27;;
67841;SDS011;54642;59.126;37.876;2023-05-29T11:13:54;3.60;;;1.15;;
67841;SDS011;54642;59.126;37.876;2023-05-29T11:18:54;10.93;;;1.40;;
67841;SDS011;54642;59.126;37.876;2023-05-29T11:21:22;7.65;;;1.95;;
67841;SDS011;54642;59.126;37.876;2023-05-29T11:23:51;5.10;;;1.88;;
67841;SDS011;54642;59.126;37.876;2023-05-29T11:26:22;15.77;;;10.40;;
67841;SDS011;54642;59.126;37.876;2023-05-29T11:28:50;4.15;;;1.40;;
67841;SDS011;54642;59.126;37.876;2023-05-29T11:31:16;5.85;;;1.70;;
67841;SDS011;54642;59.126;37.876;2023-05-29T11:33:47;7.38;;;1.90;;
67841;SDS011;54642;59.126;37.876;2023-05-29T11:36:17;7.88;;;2.15;;
67841;SDS011;54642;59.126;37.876;2023-05-29T11:38:45;5.95;;;2.17;;
67841;SDS011;54642;59.126;37.876;2023-05-29T11:41:11;8.88;;;2.40;;
67841;SDS011;54642;59.126;37.876;2023-05-29T11:43:37;5.93;;;1.88;;
67841;SDS011;54642;59.126;37.876;2023-05-29T11:46:17;21.25;;;3.05;;
67841;SDS011;54642;59.126;37.876;2023-05-29T11:48:48;4.72;;;2.20;;
67841;SDS011;54642;59.126;37.876;2023-05-29T11:51:14;3.80;;;2.05;;
67841;SDS011;54642;59.126;37.876;2023-05-29T11:53:42;12.52;;;3.85;;
67841;SDS011;54642;59.126;37.876;2023-05-29T11:56:09;5.82;;;2.08;;
67841;SDS011;54642;59.126;37.876;2023-05-29T11:58:39;12.20;;;2.00;;
67841;SDS011;54642;59.126;37.876;2023-05-29T12:01:07;5.97;;;1.75;;
67841;SDS011;54642;59.126;37.876;2023-05-29T12:03:37;4.03;;;1.85;;
67841;SDS011;54642;59.126;37.876;2023-05-29T12:06:04;15.65;;;4.20;;
67841;SDS011;54642;59.126;37.876;2023-05-29T12:08:31;6.68;;;2.17;;
67841;SDS011;54642;59.126;37.876;2023-05-29T12:10:57;7.43;;;2.50;;
67841;SDS011;54642;59.126;37.876;2023-05-29T12:13:23;9.93;;;1.70;;
67841;SDS011;54642;59.126;37.876;2023-05-29T12:15:54;4.30;;;1.30;;
67841;SDS011;54642;59.126;37.876;2023-05-29T12:18:24;4.70;;;2.35;;
67841;SDS011;54642;59.126;37.876;2023-05-29T12:20:50;8.10;;;2.22;;
67841;SDS011;54642;59.126;37.876;2023-05-29T12:23:17;10.10;;;3.58;;
67841;SDS011;54642;59.126;37.876;2023-05-29T12:25:46;8.15;;;2.15;;
67841;SDS011;54642;59.126;37.876;2023-05-29T12:28:18;6.90;;;1.42;;
67841;SDS011;54642;59.126;37.876;2023-05-29T12:30:46;6.93;;;2.13;;
67841;SDS011;54642;59.126;37.876;2023-05-29T12:35:45;3.25;;;2.42;;
67841;SDS011;54642;59.126;37.876;2023-05-29T12:38:12;3.50;;;1.23;;
67841;SDS011;54642;59.126;37.876;2023-05-29T12:40:40;3.97;;;2.25;;
67841;SDS011;54642;59.126;37.876;2023-05-29T12:43:13;8.73;;;1.65;;
67841;SDS011;54642;59.126;37.876;2023-05-29T12:45:39;12.73;;;2.65;;
67841;SDS011;54642;59.126;37.876;2023-05-29T12:48:05;6.05;;;2.05;;
67841;SDS011;54642;59.126;37.876;2023-05-29T12:50:33;6.57;;;1.98;;
67841;SDS011;54642;59.126;37.876;2023-05-29T12:53:00;7.53;;;2.13;;
67841;SDS011;54642;59.126;37.876;2023-05-29T12:55:36;6.93;;;1.85;;
67841;SDS011;54642;59.126;37.876;2023-05-29T12:58:04;7.35;;;1.80;;
67841;SDS011;54642;59.126;37.876;2023-05-29T13:00:31;5.70;;;2.13;;
67841;SDS011;54642;59.126;37.876;2023-05-29T13:02:59;5.45;;;2.17;;
67841;SDS011;54642;59.126;37.876;2023-05-29T13:05:24;3.45;;;1.83;;
67841;SDS011;54642;59.126;37.876;2023-05-29T13:07:51;14.02;;;5.63;;
67841;SDS011;54642;59.126;37.876;2023-05-29T13:10:17;5.50;;;2.00;;
67841;SDS011;54642;59.126;37.876;2023-05-29T13:12:43;9.18;;;1.92;;
67841;SDS011;54642;59.126;37.876;2023-05-29T13:15:10;7.38;;;2.40;;
67841;SDS011;54642;59.126;37.876;2023-05-29T13:17:38;8.98;;;2.50;;
67841;SDS011;54642;59.126;37.876;2023-05-29T13:20:07;17.50;;;6.68;;
67841;SDS011;54642;59.126;37.876;2023-05-29T13:22:35;17.42;;;11.95;;
67841;SDS011;54642;59.126;37.876;2023-05-29T13:25:01;8.20;;;2.78;;
67841;SDS011;54642;59.126;37.876;2023-05-29T13:27:27;12.25;;;3.08;;
67841;SDS011;54642;59.126;37.876;2023-05-29T13:29:53;6.20;;;1.83;;
67841;SDS011;54642;59.126;37.876;2023-05-29T13:32:20;11.43;;;2.45;;
67841;SDS011;54642;59.126;37.876;2023-05-29T13:34:46;5.55;;;2.40;;
67841;SDS011;54642;59.126;37.876;2023-05-29T13:37:11;14.18;;;3.70;;
67841;SDS011;54642;59.126;37.876;2023-05-29T13:39:37;4.70;;;1.90;;
67841;SDS011;54642;59.126;37.876;2023-05-29T13:42:03;10.90;;;2.20;;
67841;SDS011;54642;59.126;37.876;2023-05-29T13:44:29;11.15;;;2.83;;
67841;SDS011;54642;59.126;37.876;2023-05-29T13:46:55;4.60;;;2.08;;
67841;SDS011;54642;59.126;37.876;2023-05-29T13:49:21;6.75;;;2.20;;
67841;SDS011;54642;59.126;37.876;2023-05-29T13:51:47;7.20;;;2.30;;
67841;SDS011;54642;59.126;37.876;2023-05-29T13:54:15;9.88;;;4.85;;
67841;SDS011;54642;59.126;37.876;2023-05-29T13:56:43;8.55;;;2.55;;
67841;SDS011;54642;59.126;37.876;2023-05-29T13:59:09;18.55;;;3.90;;
67841;SDS011;54642;59.126;37.876;2023-05-29T14:01:35;5.38;;;2.65;;
67841;SDS011;54642;59.126;37.876;2023-05-29T14:04:01;17.85;;;2.70;;
67841;SDS011;54642;59.126;37.876;2023-05-29T14:06:29;5.28;;;1.95;;
67841;SDS011;54642;59.126;37.876;2023-05-29T14:08:55;11.57;;;2.25;;
67841;SDS011;54642;59.126;37.876;2023-05-29T14:11:21;18.05;;;3.53;;
67841;SDS011;54642;59.126;37.876;2023-05-29T14:13:47;27.10;;;13.65;;
67841;SDS011;54642;59.126;37.876;2023-05-29T14:16:13;9.10;;;3.33;;
67841;SDS011;54642;59.126;37.876;2023-05-29T14:18:41;8.50;;;2.60;;
67841;SDS011;54642;59.126;37.876;2023-05-29T14:21:07;11.13;;;2.53;;
67841;SDS011;54642;59.126;37.876;2023-05-29T14:23:33;6.63;;;2.78;;
67841;SDS011;54642;59.126;37.876;2023-05-29T14:26:01;10.10;;;3.17;;
67841;SDS011;54642;59.126;37.876;2023-05-29T14:28:28;8.60;;;2.28;;
67841;SDS011;54642;59.126;37.876;2023-05-29T14:30:53;19.00;;;13.13;;
67841;SDS011;54642;59.126;37.876;2023-05-29T14:33:19;11.35;;;7.72;;
67841;SDS011;54642;59.126;37.876;2023-05-29T14:35:45;12.15;;;2.55;;
67841;SDS011;54642;59.126;37.876;2023-05-29T14:38:11;8.20;;;2.90;;
67841;SDS011;54642;59.126;37.876;2023-05-29T14:40:37;11.55;;;3.92;;
67841;SDS011;54642;59.126;37.876;2023-05-29T14:43:04;10.68;;;2.75;;
67841;SDS011;54642;59.126;37.876;2023-05-29T14:45:29;12.10;;;2.78;;
67841;SDS011;54642;59.126;37.876;2023-05-29T14:47:55;13.98;;;2.60;;
67841;SDS011;54642;59.126;37.876;2023-05-29T14:50:21;17.38;;;8.40;;
67841;SDS011;54642;59.126;37.876;2023-05-29T14:52:47;17.17;;;8.82;;
67841;SDS011;54642;59.126;37.876;2023-05-29T14:55:13;5.40;;;2.22;;
67841;SDS011;54642;59.126;37.876;2023-05-29T14:57:40;5.55;;;2.40;;
67841;SDS011;54642;59.126;37.876;2023-05-29T15:00:07;6.68;;;2.50;;